createdAt,value
2018-11-14T00:00:03.432Z,10.17
2018-11-14T00:02:31.986Z,10.03
2018-11-14T00:05:00.445Z,9.57
2018-11-14T00:07:28.956Z,10.33
2018-11-14T00:09:57.424Z,8.80
2018-11-14T00:12:25.933Z,9.83
2018-11-14T00:14:54.376Z,9.53
2018-11-14T00:17:22.816Z,9.43
2018-11-14T00:19:51.284Z,9.13
2018-11-14T00:24:45.016Z,10.13
2018-11-14T00:27:13.374Z,9.40
2018-11-14T00:29:42.180Z,9.37
2018-11-14T00:32:10.532Z,9.27
2018-11-14T00:34:39.042Z,8.27
2018-11-14T00:37:07.480Z,8.97
2018-11-14T00:39:35.923Z,8.87
2018-11-14T00:42:04.405Z,8.67
2018-11-14T00:44:32.862Z,9.07
2018-11-14T00:47:01.397Z,8.03
2018-11-14T00:49:29.851Z,10.10
2018-11-14T00:51:58.333Z,8.80
2018-11-14T00:54:27.743Z,8.40
2018-11-14T00:56:56.204Z,8.70
2018-11-14T00:59:24.970Z,8.17
2018-11-14T01:01:53.426Z,8.90
2018-11-14T01:04:21.857Z,8.47
2018-11-14T01:06:50.307Z,7.93
2018-11-14T01:11:47.173Z,8.03
2018-11-14T01:14:15.608Z,8.07
2018-11-14T01:16:45.257Z,8.37
2018-11-14T01:19:13.728Z,8.40
2018-11-14T01:21:42.297Z,9.10
2018-11-14T01:24:10.989Z,8.23
2018-11-14T01:26:40.392Z,7.10
2018-11-14T01:29:08.875Z,8.60
2018-11-14T01:31:37.361Z,8.53
2018-11-14T01:34:06.414Z,9.20
2018-11-14T01:36:34.879Z,9.53
2018-11-14T01:39:03.447Z,8.27
2018-11-14T01:41:31.880Z,8.67
2018-11-14T01:44:01.270Z,8.17
2018-11-14T01:46:29.758Z,8.73
2018-11-14T01:48:58.232Z,9.17
2018-11-14T01:51:26.735Z,8.03
2018-11-14T01:53:55.172Z,9.40
2018-11-14T01:56:23.603Z,9.30
2018-11-14T01:58:52.046Z,8.87
2018-11-14T02:01:20.521Z,8.63
2018-11-14T02:03:48.903Z,8.80
2018-11-14T02:06:17.340Z,9.10
2018-11-14T02:08:45.803Z,8.50
2018-11-14T02:11:14.303Z,9.60
2018-11-14T02:13:42.774Z,9.20
2018-11-14T02:16:11.173Z,8.20
2018-11-14T02:18:39.605Z,10.03
2018-11-14T02:21:08.066Z,9.50
2018-11-14T02:23:36.532Z,8.50
2018-11-14T02:26:05.290Z,8.53
2018-11-14T02:28:33.722Z,9.13
2018-11-14T02:31:02.219Z,9.23
2018-11-14T02:33:30.712Z,9.47
2018-11-14T02:35:59.147Z,8.37
2018-11-14T02:38:27.613Z,8.27
2018-11-14T02:40:56.059Z,8.73
2018-11-14T02:43:24.500Z,8.47
2018-11-14T02:45:52.936Z,9.17
2018-11-14T02:48:21.384Z,8.70
2018-11-14T02:50:59.941Z,8.93
2018-11-14T02:53:28.394Z,8.30
2018-11-14T02:56:08.475Z,8.67
2018-11-14T02:58:36.974Z,9.37
2018-11-14T03:01:06.045Z,7.77
2018-11-14T03:03:34.519Z,7.67
2018-11-14T03:06:02.963Z,9.43
2018-11-14T03:08:31.404Z,8.73
2018-11-14T03:10:59.880Z,8.60
2018-11-14T03:13:28.294Z,8.30
2018-11-14T03:15:56.810Z,8.97
2018-11-14T03:18:25.225Z,7.77
2018-11-14T03:20:53.655Z,7.57
2018-11-14T03:23:22.137Z,7.57
2018-11-14T03:25:50.565Z,8.17
2018-11-14T03:28:20.904Z,7.50
2018-11-14T03:30:49.381Z,8.33
2018-11-14T03:33:17.836Z,8.43
2018-11-14T03:35:51.447Z,8.40
2018-11-14T03:38:19.945Z,7.70
2018-11-14T03:40:48.526Z,8.03
2018-11-14T03:43:16.990Z,7.93
2018-11-14T03:45:45.430Z,7.57
2018-11-14T03:48:14.568Z,7.33
2018-11-14T03:50:42.993Z,7.73
2018-11-14T03:53:12.146Z,7.13
2018-11-14T03:55:40.573Z,7.43
2018-11-14T03:58:09.663Z,7.53
2018-11-14T04:00:38.164Z,8.07
2018-11-14T04:03:06.684Z,7.80
2018-11-14T04:05:35.170Z,7.17
2018-11-14T04:08:03.622Z,8.13
2018-11-14T04:10:32.134Z,8.10
2018-11-14T04:13:00.563Z,7.20
2018-11-14T04:15:29.027Z,7.03
2018-11-14T04:17:57.490Z,7.00
2018-11-14T04:20:26.065Z,6.93
2018-11-14T04:22:54.533Z,8.13
2018-11-14T04:25:22.959Z,8.10
2018-11-14T04:27:51.412Z,8.97
2018-11-14T04:30:21.093Z,7.53
2018-11-14T04:32:49.573Z,8.43
2018-11-14T04:35:19.796Z,8.93
2018-11-14T04:37:48.239Z,8.60
2018-11-14T04:40:19.032Z,8.03
2018-11-14T04:42:47.463Z,8.33
2018-11-14T04:45:19.475Z,8.60
2018-11-14T04:47:48.009Z,8.63
2018-11-14T04:50:20.003Z,9.13
2018-11-14T04:52:49.253Z,9.07
2018-11-14T04:55:18.821Z,9.60
2018-11-14T04:57:47.630Z,9.80
2018-11-14T05:00:16.953Z,10.30
2018-11-14T05:02:45.949Z,9.20
2018-11-14T05:05:15.740Z,9.30
2018-11-14T05:07:44.247Z,8.77
2018-11-14T05:10:15.124Z,9.17
2018-11-14T05:12:43.659Z,9.30
2018-11-14T05:15:13.574Z,10.07
2018-11-14T05:17:42.116Z,9.57
2018-11-14T05:20:12.000Z,9.90
2018-11-14T05:22:40.504Z,10.57
2018-11-14T05:25:09.041Z,9.50
2018-11-14T05:27:37.494Z,10.50
2018-11-14T05:30:08.844Z,9.73
2018-11-14T05:32:37.255Z,10.47
2018-11-14T05:35:07.262Z,9.13
2018-11-14T05:37:36.913Z,10.37
2018-11-14T05:40:06.318Z,9.90
2018-11-14T05:42:34.712Z,9.97
2018-11-14T05:45:03.182Z,9.27
2018-11-14T05:47:32.164Z,8.90
2018-11-14T05:50:00.586Z,9.63
2018-11-14T05:52:29.038Z,9.13
2018-11-14T05:54:57.582Z,9.63
2018-11-14T05:57:25.953Z,9.43
2018-11-14T05:59:54.357Z,10.20
2018-11-14T06:02:22.810Z,10.70
2018-11-14T06:04:51.261Z,10.23
2018-11-14T06:07:19.776Z,10.53
2018-11-14T06:09:48.838Z,9.23
2018-11-14T06:12:17.341Z,11.27
2018-11-14T06:14:45.863Z,10.03
2018-11-14T06:17:14.357Z,11.30
2018-11-14T06:19:42.796Z,9.43
2018-11-14T06:22:11.351Z,10.73
2018-11-14T06:24:39.815Z,11.07
2018-11-14T06:27:08.248Z,10.03
2018-11-14T06:29:36.729Z,9.97
2018-11-14T06:32:05.592Z,9.90
2018-11-14T06:34:34.016Z,9.97
2018-11-14T06:37:02.472Z,10.60
2018-11-14T06:39:30.929Z,9.27
2018-11-14T06:41:59.405Z,10.47
2018-11-14T06:44:27.864Z,10.70
2018-11-14T06:46:56.876Z,11.23
2018-11-14T06:49:25.472Z,11.30
2018-11-14T06:51:53.908Z,11.43
2018-11-14T06:54:22.344Z,10.83
2018-11-14T06:56:50.841Z,11.00
2018-11-14T06:59:19.352Z,11.17
2018-11-14T07:01:47.787Z,9.97
2018-11-14T07:04:16.232Z,11.53
2018-11-14T07:06:44.682Z,11.37
2018-11-14T07:09:13.174Z,10.40
2018-11-14T07:11:41.688Z,10.73
2018-11-14T07:14:10.188Z,10.97
2018-11-14T07:16:38.659Z,10.27
2018-11-14T07:19:07.261Z,10.67
2018-11-14T07:21:35.961Z,11.23
2018-11-14T07:24:04.562Z,10.13
2018-11-14T07:26:33.064Z,10.33
2018-11-14T07:29:01.647Z,10.20
2018-11-14T07:31:30.153Z,10.50
2018-11-14T07:33:58.643Z,10.17
2018-11-14T07:36:27.155Z,9.93
2018-11-14T07:38:55.605Z,9.70
2018-11-14T07:41:26.652Z,10.30
2018-11-14T07:43:55.185Z,10.00
2018-11-14T07:46:24.629Z,9.27
2018-11-14T07:48:53.179Z,9.47
2018-11-14T07:51:21.753Z,9.37
2018-11-14T07:53:50.467Z,9.67
2018-11-14T07:56:19.004Z,9.87
2018-11-14T07:58:47.462Z,10.10
2018-11-14T08:01:16.052Z,9.23
2018-11-14T08:03:44.929Z,9.70
2018-11-14T08:06:13.699Z,9.03
2018-11-14T08:08:42.333Z,9.57
2018-11-14T08:11:10.785Z,9.33
2018-11-14T08:13:40.906Z,9.10
2018-11-14T08:16:09.307Z,9.13
2018-11-14T08:18:37.780Z,9.03
2018-11-14T08:21:06.683Z,9.50
2018-11-14T08:23:35.202Z,9.40
2018-11-14T08:26:03.720Z,8.60
2018-11-14T08:28:32.189Z,9.03
2018-11-14T08:31:00.669Z,8.90
2018-11-14T08:33:29.166Z,9.13
2018-11-14T08:35:57.594Z,8.13
2018-11-14T08:38:26.064Z,8.40
2018-11-14T08:40:54.581Z,8.90
2018-11-14T08:43:23.036Z,8.67
2018-11-14T08:45:51.489Z,8.70
2018-11-14T08:48:19.934Z,8.67
2018-11-14T08:50:48.424Z,8.20
2018-11-14T08:53:16.955Z,8.67
2018-11-14T08:55:45.906Z,7.83
2018-11-14T08:58:14.399Z,8.17
2018-11-14T09:00:42.898Z,7.40
2018-11-14T09:03:12.660Z,8.03
2018-11-14T09:05:41.088Z,7.43
2018-11-14T09:08:09.532Z,7.73
2018-11-14T09:10:37.995Z,6.50
2018-11-14T09:13:10.721Z,6.80
2018-11-14T09:15:39.205Z,6.67
2018-11-14T09:18:07.688Z,6.47
2018-11-14T09:20:36.133Z,6.17
2018-11-14T09:23:04.929Z,6.27
2018-11-14T09:25:33.399Z,6.07
2018-11-14T09:28:02.382Z,6.53
2018-11-14T09:30:30.909Z,6.60
2018-11-14T09:32:59.957Z,6.67
2018-11-14T09:35:29.401Z,6.73
2018-11-14T09:37:59.118Z,7.03
2018-11-14T09:40:28.466Z,6.87
2018-11-14T09:42:56.926Z,7.20
2018-11-14T09:45:26.717Z,7.63
2018-11-14T09:47:55.224Z,6.80
2018-11-14T09:50:24.890Z,7.43
2018-11-14T09:52:55.698Z,7.03
2018-11-14T09:55:24.157Z,7.27
2018-11-14T09:57:52.594Z,7.87
2018-11-14T10:00:22.336Z,6.87
2018-11-14T10:02:52.262Z,8.03
2018-11-14T10:05:21.992Z,7.43
2018-11-14T10:07:50.469Z,8.17
2018-11-14T10:10:20.391Z,7.30
2018-11-14T10:12:48.906Z,7.40
2018-11-14T10:15:18.588Z,7.53
2018-11-14T10:17:47.605Z,7.73
2018-11-14T10:20:18.346Z,7.77
2018-11-14T10:22:47.013Z,7.37
2018-11-14T10:25:16.013Z,7.57
2018-11-14T10:27:45.236Z,7.37
2018-11-14T10:30:24.493Z,7.73
2018-11-14T10:32:53.468Z,7.00
2018-11-14T10:35:21.926Z,8.00
2018-11-14T10:37:50.401Z,8.00
2018-11-14T10:40:22.194Z,7.27
2018-11-14T10:42:50.692Z,7.40
2018-11-14T10:45:20.343Z,7.50
2018-11-14T10:47:49.747Z,8.43
2018-11-14T10:50:20.349Z,8.10
2018-11-14T10:52:48.919Z,7.57
2018-11-14T10:55:17.957Z,7.83
2018-11-14T10:57:46.618Z,7.80
2018-11-14T11:00:27.214Z,7.47
2018-11-14T11:03:02.006Z,7.40
2018-11-14T11:05:35.929Z,7.57
2018-11-14T11:08:10.101Z,7.23
2018-11-14T11:10:43.704Z,7.60
2018-11-14T11:13:17.439Z,7.37
2018-11-14T11:15:51.113Z,7.67
2018-11-14T11:18:20.743Z,8.60
2018-11-14T11:20:49.211Z,6.77
2018-11-14T11:23:17.668Z,7.00
2018-11-14T11:25:46.165Z,7.47
2018-11-14T11:28:14.943Z,7.43
2018-11-14T11:30:43.470Z,7.00
2018-11-14T11:33:11.883Z,6.80
2018-11-14T11:35:40.387Z,6.00
2018-11-14T11:38:08.866Z,7.23
2018-11-14T11:40:37.331Z,6.77
2018-11-14T11:43:06.217Z,6.60
2018-11-14T11:45:35.168Z,6.80
2018-11-14T11:48:03.674Z,6.40
2018-11-14T11:50:32.136Z,6.33
2018-11-14T11:53:00.851Z,5.70
2018-11-14T11:55:29.333Z,6.23
2018-11-14T11:57:57.786Z,6.43
2018-11-14T12:00:26.454Z,6.17
2018-11-14T12:02:54.772Z,5.67
2018-11-14T12:05:23.260Z,6.00
2018-11-14T12:07:52.408Z,5.50
2018-11-14T12:10:20.828Z,5.70
2018-11-14T12:12:49.373Z,5.93
2018-11-14T12:15:17.923Z,6.23
2018-11-14T12:17:46.437Z,5.70
2018-11-14T12:20:16.705Z,5.57
2018-11-14T12:22:45.157Z,6.30
2018-11-14T12:25:15.000Z,6.40
2018-11-14T12:27:43.525Z,6.60
2018-11-14T12:30:14.431Z,6.03
2018-11-14T12:32:43.074Z,5.30
2018-11-14T12:35:13.217Z,5.00
2018-11-14T12:37:41.944Z,6.50
2018-11-14T12:40:11.482Z,5.33
2018-11-14T12:42:39.978Z,5.20
2018-11-14T12:45:10.380Z,5.53
2018-11-14T12:47:38.980Z,5.27
2018-11-14T12:50:08.210Z,5.10
2018-11-14T12:52:36.714Z,5.07
2018-11-14T12:55:05.830Z,4.93
2018-11-14T12:57:34.281Z,4.97
2018-11-14T13:00:02.876Z,5.13
2018-11-14T13:02:31.309Z,4.80
2018-11-14T13:04:59.760Z,4.30
2018-11-14T13:07:28.283Z,4.97
2018-11-14T13:09:57.332Z,4.77
2018-11-14T13:12:26.800Z,4.10
2018-11-14T13:14:55.352Z,4.37
2018-11-14T13:17:23.797Z,4.07
2018-11-14T13:19:52.229Z,3.93
2018-11-14T13:22:22.062Z,4.60
2018-11-14T13:24:51.120Z,4.60
2018-11-14T13:28:48.781Z,4.77
2018-11-14T13:31:17.263Z,4.00
2018-11-14T13:33:45.772Z,4.80
2018-11-14T13:36:14.305Z,4.17
2018-11-14T13:38:42.773Z,4.70
2018-11-14T13:41:11.239Z,4.90
2018-11-14T13:43:39.707Z,3.80
2018-11-14T13:46:08.262Z,3.73
2018-11-14T13:48:36.778Z,4.00
2018-11-14T13:51:05.444Z,3.17
2018-11-14T13:53:33.780Z,3.40
2018-11-14T13:56:02.238Z,3.07
2018-11-14T13:58:30.665Z,3.37
2018-11-14T14:00:59.107Z,3.07
2018-11-14T14:03:28.232Z,3.77
2018-11-14T14:05:56.684Z,4.03
2018-11-14T14:08:25.177Z,3.33
2018-11-14T14:10:53.686Z,3.27
2018-11-14T14:13:22.135Z,3.13
2018-11-14T14:15:50.781Z,2.80
2018-11-14T14:18:19.241Z,3.60
2018-11-14T14:20:47.761Z,3.30
2018-11-14T14:23:17.184Z,3.07
2018-11-14T14:25:45.624Z,3.60
2018-11-14T14:28:14.085Z,3.70
2018-11-14T14:30:42.603Z,4.00
2018-11-14T14:33:11.363Z,3.53
2018-11-14T14:35:39.810Z,3.50
2018-11-14T14:38:08.378Z,3.77
2018-11-14T14:40:36.733Z,3.13
2018-11-14T14:43:05.384Z,4.47
2018-11-14T14:45:33.854Z,3.83
2018-11-14T14:48:02.335Z,3.53
2018-11-14T14:50:31.414Z,4.00
2018-11-14T14:52:59.828Z,3.40
2018-11-14T14:55:28.290Z,3.60
2018-11-14T14:57:56.722Z,3.90
2018-11-14T15:00:26.413Z,3.77
2018-11-14T15:02:54.942Z,3.77
2018-11-14T15:05:23.364Z,3.60
2018-11-14T15:07:51.813Z,3.90
2018-11-14T15:10:21.484Z,3.50
2018-11-14T15:12:50.044Z,3.97
2018-11-14T15:15:18.933Z,4.60
2018-11-14T15:17:47.338Z,4.00
2018-11-14T15:20:18.890Z,4.10
2018-11-14T15:22:47.351Z,4.53
2018-11-14T15:25:17.344Z,4.27
2018-11-14T15:27:46.413Z,3.70
2018-11-14T15:30:17.727Z,3.27
2018-11-14T15:32:46.169Z,3.73
2018-11-14T15:35:14.800Z,3.07
2018-11-14T15:37:43.192Z,4.17
2018-11-14T15:40:13.134Z,3.87
2018-11-14T15:42:41.678Z,3.13
2018-11-14T15:45:13.221Z,3.07
2018-11-14T15:47:41.757Z,3.73
2018-11-14T15:50:12.595Z,4.00
2018-11-14T15:52:41.528Z,3.87
2018-11-14T15:55:12.220Z,3.70
2018-11-14T15:57:40.700Z,4.40
2018-11-14T16:00:13.044Z,4.30
2018-11-14T16:02:41.738Z,3.90
2018-11-14T16:05:12.668Z,3.80
2018-11-14T16:07:42.294Z,4.33
2018-11-14T16:10:12.463Z,3.80
2018-11-14T16:12:41.588Z,3.93
2018-11-14T16:15:13.498Z,4.03
2018-11-14T16:17:42.434Z,3.47
2018-11-14T16:20:12.702Z,4.17
2018-11-14T16:22:41.196Z,4.03
2018-11-14T16:25:13.350Z,3.90
2018-11-14T16:27:42.874Z,3.80
2018-11-14T16:30:17.433Z,4.27
2018-11-14T16:32:47.055Z,3.80
2018-11-14T16:35:15.631Z,4.43
2018-11-14T16:37:44.436Z,3.93
2018-11-14T16:40:15.820Z,4.13
2018-11-14T16:42:44.260Z,3.77
2018-11-14T16:45:13.598Z,4.30
2018-11-14T16:47:42.232Z,4.13
2018-11-14T16:50:12.828Z,4.00
2018-11-14T16:52:41.871Z,4.07
2018-11-14T16:55:11.419Z,4.17
2018-11-14T16:57:40.640Z,4.30
2018-11-14T17:00:11.228Z,4.43
2018-11-14T17:02:39.946Z,4.60
2018-11-14T17:05:08.503Z,4.30
2018-11-14T17:07:36.993Z,4.40
2018-11-14T17:10:06.610Z,4.90
2018-11-14T17:12:35.058Z,4.37
2018-11-14T17:15:03.803Z,5.13
2018-11-14T17:17:32.304Z,5.85
2018-11-14T17:20:00.756Z,5.10
2018-11-14T17:22:29.275Z,5.70
2018-11-14T17:24:57.717Z,6.40
2018-11-14T17:27:26.190Z,5.87
2018-11-14T17:29:54.709Z,6.77
2018-11-14T17:32:23.186Z,5.50
2018-11-14T17:34:51.681Z,5.37
2018-11-14T17:37:20.174Z,6.33
2018-11-14T17:39:48.605Z,6.37
2018-11-14T17:42:17.166Z,6.30
2018-11-14T17:44:45.590Z,6.00
2018-11-14T17:47:14.791Z,6.20
2018-11-14T17:49:43.267Z,6.43
2018-11-14T17:52:11.873Z,7.10
2018-11-14T17:54:40.357Z,6.93
2018-11-14T17:57:08.813Z,6.50
2018-11-14T17:59:37.269Z,7.00
2018-11-14T18:02:06.390Z,6.90
2018-11-14T18:04:34.835Z,6.87
2018-11-14T18:07:03.421Z,7.70
2018-11-14T18:09:31.993Z,7.30
2018-11-14T18:12:00.526Z,8.00
2018-11-14T18:14:29.106Z,7.30
2018-11-14T18:16:57.639Z,7.43
2018-11-14T18:19:26.188Z,6.90
2018-11-14T18:21:54.690Z,7.90
2018-11-14T18:24:23.199Z,7.93
2018-11-14T18:26:51.675Z,7.90
2018-11-14T18:29:20.189Z,8.57
2018-11-14T18:31:48.692Z,7.53
2018-11-14T18:34:17.189Z,8.37
2018-11-14T18:36:45.760Z,7.77
2018-11-14T18:39:14.720Z,7.93
2018-11-14T18:41:43.756Z,7.93
2018-11-14T18:44:12.195Z,9.03
2018-11-14T18:46:40.674Z,8.20
2018-11-14T18:49:09.133Z,8.60
2018-11-14T18:51:38.282Z,8.27
2018-11-14T18:54:06.860Z,9.40
2018-11-14T18:56:35.455Z,8.47
2018-11-14T18:59:03.921Z,9.07
2018-11-14T19:01:32.388Z,9.10
2018-11-14T19:04:00.864Z,9.07
2018-11-14T19:06:29.352Z,9.50
2018-11-14T19:08:57.806Z,9.10
2018-11-14T19:11:26.295Z,10.13
2018-11-14T19:13:54.924Z,10.30
2018-11-14T19:16:24.617Z,9.63
2018-11-14T19:18:53.101Z,10.20
2018-11-14T19:21:21.591Z,9.10
2018-11-14T19:23:50.844Z,9.40
2018-11-14T19:26:19.373Z,10.20
2018-11-14T19:28:48.526Z,9.90
2018-11-14T19:31:16.994Z,10.40
2018-11-14T19:33:45.433Z,9.77
2018-11-14T19:36:13.963Z,9.37
2018-11-14T19:38:42.435Z,10.30
2018-11-14T19:41:10.932Z,9.97
2018-11-14T19:43:39.357Z,11.33
2018-11-14T19:46:08.541Z,9.87
2018-11-14T19:48:37.136Z,11.20
2018-11-14T19:51:06.129Z,11.57
2018-11-14T19:53:34.651Z,12.73
2018-11-14T19:56:03.734Z,13.87
2018-11-14T19:58:32.165Z,12.23
2018-11-14T20:01:00.741Z,13.60
2018-11-14T20:03:29.258Z,12.53
2018-11-14T20:05:57.779Z,13.50
2018-11-14T20:08:26.276Z,12.00
2018-11-14T20:10:54.728Z,11.77
2018-11-14T20:13:23.814Z,12.00
2018-11-14T20:15:53.550Z,12.87
2018-11-14T20:18:22.009Z,11.40
2018-11-14T20:20:53.164Z,11.60
2018-11-14T20:23:22.668Z,11.40
2018-11-14T20:25:52.713Z,11.97
2018-11-14T20:28:22.771Z,13.13
2018-11-14T20:30:52.122Z,12.90
2018-11-14T20:33:22.923Z,13.17
2018-11-14T20:35:52.975Z,13.77
2018-11-14T20:38:22.249Z,13.37
2018-11-14T20:40:52.920Z,14.00
2018-11-14T20:43:23.204Z,15.50
2018-11-14T20:45:51.958Z,15.00
2018-11-14T20:48:20.477Z,14.47
2018-11-14T20:50:48.975Z,12.87
2018-11-14T20:53:17.414Z,13.60
2018-11-14T20:55:45.934Z,13.57
2018-11-14T20:58:14.462Z,13.03
2018-11-14T21:00:42.998Z,14.00
2018-11-14T21:03:11.438Z,12.73
2018-11-14T21:05:39.899Z,13.33
2018-11-14T21:08:08.333Z,13.80
2018-11-14T21:10:36.809Z,13.73
2018-11-14T21:13:05.864Z,13.97
2018-11-14T21:15:35.698Z,13.67
2018-11-14T21:18:04.522Z,13.67
2018-11-14T21:20:32.936Z,13.53
2018-11-14T21:23:01.484Z,13.53
2018-11-14T21:25:29.853Z,14.77
2018-11-14T21:27:58.515Z,14.17
2018-11-14T21:30:28.179Z,13.83
2018-11-14T21:32:56.675Z,13.60
2018-11-14T21:35:27.611Z,13.37
2018-11-14T21:37:57.349Z,14.20
2018-11-14T21:40:25.836Z,14.60
2018-11-14T21:42:54.358Z,15.00
2018-11-14T21:45:23.989Z,14.20
2018-11-14T21:47:57.769Z,15.13
2018-11-14T21:50:27.192Z,14.17
2018-11-14T21:52:55.700Z,14.10
2018-11-14T21:55:24.082Z,14.70
2018-11-14T21:57:52.519Z,14.10
2018-11-14T22:00:22.468Z,15.77
2018-11-14T22:02:52.278Z,14.60
2018-11-14T22:05:20.751Z,14.53
2018-11-14T22:07:49.282Z,15.07
2018-11-14T22:10:19.005Z,14.00
2018-11-14T22:12:47.769Z,14.17
2018-11-14T22:15:17.385Z,14.83
2018-11-14T22:17:45.883Z,15.60
2018-11-14T22:20:15.572Z,15.97
2018-11-14T22:22:44.752Z,14.77
2018-11-14T22:25:14.600Z,15.17
2018-11-14T22:27:43.114Z,14.67
2018-11-14T22:30:15.004Z,14.97
2018-11-14T22:32:43.488Z,14.73
2018-11-14T22:35:14.398Z,14.20
2018-11-14T22:37:42.874Z,14.13
2018-11-14T22:40:13.373Z,15.13
2018-11-14T22:42:41.919Z,14.60
2018-11-14T22:45:12.799Z,14.07
2018-11-14T22:47:41.938Z,14.30
2018-11-14T22:50:11.866Z,16.07
2018-11-14T22:52:41.245Z,15.10
2018-11-14T22:55:10.762Z,14.00
2018-11-14T22:57:39.330Z,14.63
2018-11-14T23:00:16.204Z,14.37
2018-11-14T23:02:44.702Z,13.73
2018-11-14T23:05:13.192Z,14.33
2018-11-14T23:07:41.688Z,14.47
2018-11-14T23:10:10.177Z,14.70
2018-11-14T23:12:38.723Z,14.63
2018-11-14T23:15:07.740Z,14.67
2018-11-14T23:17:36.411Z,15.17
2018-11-14T23:20:05.516Z,15.23
2018-11-14T23:22:33.966Z,16.37
2018-11-14T23:25:02.484Z,16.07
2018-11-14T23:27:30.898Z,15.50
2018-11-14T23:29:59.349Z,15.37
2018-11-14T23:32:27.793Z,15.20
2018-11-14T23:35:01.590Z,15.60
2018-11-14T23:37:30.052Z,13.83
2018-11-14T23:39:58.530Z,15.23
2018-11-14T23:42:27.000Z,14.97
2018-11-14T23:44:55.534Z,15.30
2018-11-14T23:47:23.977Z,15.90
2018-11-14T23:49:52.416Z,15.53
2018-11-14T23:52:20.842Z,15.47
2018-11-14T23:54:49.411Z,16.03
2018-11-14T23:57:17.913Z,15.03
2018-11-14T23:59:46.393Z,14.93
